createdAt,value
2023-05-10T00:02:27.502Z,11.30
2023-05-10T00:04:55.086Z,11.50
2023-05-10T00:07:22.849Z,11.50
2023-05-10T00:09:50.380Z,11.60
2023-05-10T00:12:17.898Z,11.30
2023-05-10T00:14:46.142Z,11.50
2023-05-10T00:17:13.649Z,11.20
2023-05-10T00:19:42.401Z,11.20
2023-05-10T00:22:09.836Z,11.50
2023-05-10T00:24:37.292Z,11.70
2023-05-10T00:27:05.051Z,11.70
2023-05-10T00:29:32.884Z,11.70
2023-05-10T00:32:00.393Z,11.40
2023-05-10T00:34:28.236Z,11.60
2023-05-10T00:36:55.850Z,11.60
2023-05-10T00:39:23.364Z,11.70
2023-05-10T00:41:50.932Z,11.50
2023-05-10T00:44:19.510Z,11.70
2023-05-10T00:46:47.592Z,11.40
2023-05-10T00:49:15.342Z,11.70
2023-05-10T00:51:44.055Z,11.30
2023-05-10T00:54:14.979Z,11.30
2023-05-10T00:56:49.529Z,11.60
2023-05-10T00:59:18.848Z,11.50
2023-05-10T01:01:47.318Z,11.50
2023-05-10T01:04:15.833Z,11.60
2023-05-10T01:06:44.043Z,11.30
2023-05-10T01:09:12.793Z,11.40
2023-05-10T01:11:41.438Z,11.30
2023-05-10T01:14:09.585Z,11.60
2023-05-10T01:16:42.764Z,11.20
2023-05-10T01:19:32.340Z,11.50
2023-05-10T01:21:59.761Z,11.40
2023-05-10T01:24:38.354Z,11.30
2023-05-10T01:27:28.624Z,11.30
2023-05-10T01:30:32.968Z,11.70
2023-05-10T01:33:23.118Z,11.70
2023-05-10T01:36:09.427Z,11.20
2023-05-10T01:38:53.669Z,11.50
2023-05-10T01:41:57.517Z,11.50
2023-05-10T01:44:45.311Z,11.40
2023-05-10T01:47:18.233Z,11.10
2023-05-10T01:49:51.120Z,11.50
2023-05-10T01:52:22.772Z,11.40
2023-05-10T01:55:05.695Z,11.40
2023-05-10T01:57:48.386Z,11.10
2023-05-10T02:00:17.482Z,11.20
2023-05-10T02:02:50.135Z,11.30
2023-05-10T02:05:19.785Z,11.30
2023-05-10T02:07:48.888Z,11.20
2023-05-10T02:10:18.292Z,11.00
2023-05-10T02:12:50.516Z,11.10
2023-05-10T02:15:23.323Z,10.90
2023-05-10T02:17:52.142Z,11.00
2023-05-10T02:20:21.382Z,10.90
2023-05-10T02:22:52.575Z,11.00
2023-05-10T02:25:24.248Z,10.90
2023-05-10T02:27:55.066Z,11.10
2023-05-10T02:30:24.117Z,10.90
2023-05-10T02:32:53.415Z,10.70
2023-05-10T02:35:22.127Z,10.70
2023-05-10T02:37:49.990Z,10.90
2023-05-10T02:40:19.363Z,10.80
2023-05-10T02:42:49.959Z,11.00
2023-05-10T02:45:22.893Z,10.70
2023-05-10T02:47:50.803Z,11.00
2023-05-10T02:50:18.837Z,10.80
2023-05-10T02:52:55.430Z,10.90
2023-05-10T02:55:26.607Z,10.70
2023-05-10T02:58:00.074Z,10.70
2023-05-10T03:00:28.065Z,10.70
2023-05-10T03:02:55.872Z,11.10
2023-05-10T03:05:24.406Z,11.10
2023-05-10T03:07:53.109Z,11.00
2023-05-10T03:10:23.189Z,10.80
2023-05-10T03:12:59.691Z,10.80
2023-05-10T03:15:45.536Z,10.80
2023-05-10T03:18:19.527Z,10.70
2023-05-10T03:20:55.891Z,10.70
2023-05-10T03:23:36.669Z,10.90
2023-05-10T03:26:05.625Z,11.00
2023-05-10T03:28:35.170Z,10.60
2023-05-10T03:31:05.575Z,10.90
2023-05-10T03:33:34.180Z,10.80
2023-05-10T03:36:01.712Z,10.90
2023-05-10T03:38:30.546Z,11.00
2023-05-10T03:40:58.408Z,11.10
2023-05-10T03:43:25.969Z,10.60
2023-05-10T03:45:53.707Z,10.70
2023-05-10T03:48:21.369Z,11.10
2023-05-10T03:50:50.500Z,10.70
2023-05-10T03:53:18.080Z,11.00
2023-05-10T03:55:45.913Z,10.60
2023-05-10T03:58:13.362Z,11.10
2023-05-10T04:00:46.248Z,10.60
2023-05-10T04:03:15.598Z,10.80
2023-05-10T04:05:43.174Z,10.60
2023-05-10T04:08:10.793Z,10.60
2023-05-10T04:10:38.357Z,10.60
2023-05-10T04:13:05.953Z,10.80
2023-05-10T04:15:33.456Z,10.80
2023-05-10T04:18:01.300Z,10.90
2023-05-10T04:20:28.882Z,11.00
2023-05-10T04:22:56.334Z,11.00
2023-05-10T04:25:23.790Z,10.50
2023-05-10T04:27:51.312Z,10.70
2023-05-10T04:30:19.510Z,10.90
2023-05-10T04:32:47.019Z,10.80
2023-05-10T04:35:15.964Z,10.90
2023-05-10T04:37:44.219Z,10.90
2023-05-10T04:40:12.037Z,10.70
2023-05-10T04:42:42.329Z,10.70
2023-05-10T04:45:10.767Z,10.80
2023-05-10T04:47:38.283Z,10.30
2023-05-10T04:50:06.553Z,10.70
2023-05-10T04:52:34.220Z,10.60
2023-05-10T04:55:01.680Z,10.40
2023-05-10T04:57:29.144Z,10.30
2023-05-10T04:59:56.674Z,10.10
2023-05-10T05:02:24.759Z,10.40
2023-05-10T05:04:52.311Z,10.10
2023-05-10T05:07:19.762Z,10.30
2023-05-10T05:09:47.191Z,10.10
2023-05-10T05:12:15.362Z,10.10
2023-05-10T05:14:42.927Z,10.20
2023-05-10T05:17:10.380Z,10.40
2023-05-10T05:19:39.402Z,10.30
2023-05-10T05:22:08.936Z,10.60
2023-05-10T05:24:39.098Z,10.50
2023-05-10T05:27:07.068Z,10.20
2023-05-10T05:29:34.781Z,10.10
2023-05-10T05:32:02.382Z,10.10
2023-05-10T05:34:29.980Z,10.30
2023-05-10T05:36:57.465Z,10.10
2023-05-10T05:39:24.968Z,9.90
2023-05-10T05:41:52.492Z,10.40
2023-05-10T05:44:19.898Z,10.10
2023-05-10T05:46:47.362Z,10.10
2023-05-10T05:49:14.990Z,10.20
2023-05-10T05:51:42.548Z,10.20
2023-05-10T05:54:10.039Z,10.20
2023-05-10T05:56:38.940Z,10.60
2023-05-10T05:59:06.487Z,10.30
2023-05-10T06:01:33.947Z,10.70
2023-05-10T06:04:02.033Z,10.70
2023-05-10T06:06:29.810Z,10.30
2023-05-10T06:08:57.274Z,10.60
2023-05-10T06:11:25.006Z,10.70
2023-05-10T06:13:52.462Z,10.50
2023-05-10T06:16:19.962Z,10.30
2023-05-10T06:18:47.454Z,10.70
2023-05-10T06:21:15.879Z,10.70
2023-05-10T06:23:43.384Z,10.50
2023-05-10T06:26:11.345Z,10.70
2023-05-10T06:28:41.812Z,10.70
2023-05-10T06:31:09.424Z,10.60
2023-05-10T06:33:36.900Z,11.00
2023-05-10T06:36:04.954Z,11.10
2023-05-10T06:38:32.530Z,11.00
2023-05-10T06:41:00.818Z,10.60
2023-05-10T06:43:29.755Z,10.90
2023-05-10T06:45:57.423Z,10.90
2023-05-10T06:48:24.903Z,10.90
2023-05-10T06:50:52.344Z,10.90
2023-05-10T06:53:19.926Z,10.90
2023-05-10T06:55:47.574Z,10.70
2023-05-10T06:58:14.996Z,10.80
2023-05-10T07:00:44.695Z,10.90
2023-05-10T07:03:12.372Z,11.20
2023-05-10T07:05:39.914Z,11.10
2023-05-10T07:08:07.743Z,10.70
2023-05-10T07:10:35.352Z,11.10
2023-05-10T07:13:02.992Z,11.10
2023-05-10T07:15:30.712Z,10.70
2023-05-10T07:17:58.429Z,10.70
2023-05-10T07:20:26.050Z,11.10
2023-05-10T07:22:53.607Z,11.00
2023-05-10T07:25:21.120Z,10.70
2023-05-10T07:27:49.666Z,10.90
2023-05-10T07:30:17.316Z,10.70
2023-05-10T07:32:45.454Z,11.10
2023-05-10T07:35:12.951Z,10.70
2023-05-10T07:37:40.626Z,10.60
2023-05-10T07:40:08.719Z,10.50
2023-05-10T07:42:36.216Z,10.60
2023-05-10T07:45:04.124Z,10.70
2023-05-10T07:47:31.703Z,11.10
2023-05-10T07:49:59.206Z,10.90
2023-05-10T07:52:26.742Z,10.70
2023-05-10T07:54:54.647Z,10.70
2023-05-10T07:57:22.460Z,10.90
2023-05-10T07:59:50.069Z,10.90
2023-05-10T08:02:17.656Z,10.90
2023-05-10T08:04:45.255Z,10.90
2023-05-10T08:07:12.964Z,10.90
2023-05-10T08:09:40.535Z,10.50
2023-05-10T08:12:08.033Z,10.70
2023-05-10T08:14:37.500Z,10.50
2023-05-10T08:17:05.437Z,10.40
2023-05-10T08:19:33.245Z,10.50
2023-05-10T08:22:00.826Z,10.30
2023-05-10T08:24:28.518Z,10.60
2023-05-10T08:26:56.100Z,10.40
2023-05-10T08:29:23.950Z,10.50
2023-05-10T08:31:51.607Z,10.90
2023-05-10T08:34:19.153Z,10.70
2023-05-10T08:36:46.693Z,10.80
2023-05-10T08:39:23.351Z,10.90
2023-05-10T08:42:02.390Z,10.50
2023-05-10T08:44:31.967Z,10.80
2023-05-10T08:47:03.734Z,10.90
2023-05-10T08:49:33.150Z,10.70
2023-05-10T08:52:05.079Z,11.10
2023-05-10T08:54:34.206Z,10.80
2023-05-10T08:57:01.759Z,11.10
2023-05-10T08:59:29.928Z,11.00
2023-05-10T09:01:59.621Z,10.80
2023-05-10T09:04:27.459Z,10.90
2023-05-10T09:06:55.544Z,11.20
2023-05-10T09:09:24.918Z,10.90
2023-05-10T09:11:53.547Z,11.00
2023-05-10T09:14:21.519Z,11.00
2023-05-10T09:16:49.354Z,10.90
2023-05-10T09:19:16.894Z,10.90
2023-05-10T09:21:44.705Z,11.10
2023-05-10T09:24:13.411Z,11.10
2023-05-10T09:26:51.276Z,10.90
2023-05-10T09:29:18.917Z,10.60
2023-05-10T09:31:48.052Z,10.70
2023-05-10T09:34:32.480Z,10.80
2023-05-10T09:37:05.442Z,10.90
2023-05-10T09:39:33.489Z,11.30
2023-05-10T09:42:04.896Z,10.90
2023-05-10T09:44:33.992Z,11.20
2023-05-10T09:47:02.609Z,11.20
2023-05-10T09:49:30.599Z,11.20
2023-05-10T09:52:05.777Z,11.50
2023-05-10T09:54:33.949Z,11.30
2023-05-10T09:57:02.118Z,11.20
2023-05-10T09:59:30.895Z,11.50
2023-05-10T10:02:01.885Z,11.50
2023-05-10T10:04:29.696Z,11.60
2023-05-10T10:07:05.217Z,11.40
2023-05-10T10:09:33.917Z,11.60
2023-05-10T10:12:03.012Z,11.60
2023-05-10T10:14:31.003Z,11.70
2023-05-10T10:17:08.038Z,11.70
2023-05-10T10:19:37.934Z,11.60
2023-05-10T10:22:06.941Z,11.50
2023-05-10T10:24:34.889Z,11.60
2023-05-10T10:27:16.536Z,11.80
2023-05-10T10:30:18.394Z,11.60
2023-05-10T10:33:24.219Z,11.60
2023-05-10T10:35:56.724Z,11.90
2023-05-10T10:38:24.420Z,11.90
2023-05-10T10:41:10.216Z,12.10
2023-05-10T10:43:37.741Z,12.30
2023-05-10T10:46:18.685Z,12.10
2023-05-10T10:49:08.750Z,12.00
2023-05-10T10:51:39.829Z,12.00
2023-05-10T10:54:11.502Z,12.30
2023-05-10T10:56:39.360Z,12.00
2023-05-10T10:59:06.844Z,12.00
2023-05-10T11:01:38.250Z,11.90
2023-05-10T11:04:05.835Z,12.40
2023-05-10T11:06:34.815Z,12.60
2023-05-10T11:09:13.372Z,12.40
2023-05-10T11:11:52.982Z,13.00
2023-05-10T11:14:23.740Z,13.40
2023-05-10T11:16:51.444Z,13.20
2023-05-10T11:19:20.599Z,13.10
2023-05-10T11:22:06.464Z,12.80
2023-05-10T11:24:34.843Z,13.40
2023-05-10T11:27:02.395Z,13.50
2023-05-10T11:29:29.943Z,13.40
2023-05-10T11:32:00.720Z,13.50
2023-05-10T11:34:39.560Z,13.70
2023-05-10T11:37:07.145Z,13.50
2023-05-10T11:39:34.659Z,13.30
2023-05-10T11:42:02.300Z,13.10
2023-05-10T11:44:33.536Z,13.10
2023-05-10T11:47:02.625Z,13.10
2023-05-10T11:49:30.293Z,13.20
2023-05-10T11:52:12.128Z,13.70
2023-05-10T11:54:52.445Z,14.00
2023-05-10T11:57:21.255Z,13.80
2023-05-10T11:59:48.768Z,14.00
2023-05-10T12:02:16.388Z,13.80
2023-05-10T12:04:44.025Z,13.60
2023-05-10T12:07:11.696Z,13.50
2023-05-10T12:09:44.675Z,13.60
2023-05-10T12:12:17.979Z,13.80
2023-05-10T12:14:49.818Z,13.90
2023-05-10T12:17:17.266Z,14.00
2023-05-10T12:19:44.890Z,14.10
2023-05-10T12:22:12.451Z,14.20
2023-05-10T12:24:39.866Z,14.20
2023-05-10T12:27:09.600Z,14.00
2023-05-10T12:29:37.722Z,14.10
2023-05-10T12:32:05.307Z,14.30
2023-05-10T12:34:35.308Z,14.40
2023-05-10T12:37:04.031Z,14.50
2023-05-10T12:39:42.304Z,14.50
2023-05-10T12:42:10.673Z,14.30
2023-05-10T12:44:38.138Z,14.20
2023-05-10T12:47:06.070Z,14.40
2023-05-10T12:49:33.807Z,14.50
2023-05-10T12:52:01.222Z,14.40
2023-05-10T12:54:28.989Z,14.40
2023-05-10T12:56:56.409Z,14.10
2023-05-10T12:59:23.998Z,14.20
2023-05-10T13:01:51.422Z,13.90
2023-05-10T13:04:19.052Z,14.20
2023-05-10T13:06:46.586Z,14.40
2023-05-10T13:09:14.039Z,14.10
2023-05-10T13:11:41.785Z,14.10
2023-05-10T13:14:09.252Z,14.50
2023-05-10T13:16:36.839Z,14.50
2023-05-10T13:19:04.384Z,13.90
2023-05-10T13:21:31.839Z,13.70
2023-05-10T13:23:59.284Z,13.70
2023-05-10T13:26:27.268Z,13.60
2023-05-10T13:28:56.592Z,13.70
2023-05-10T13:31:24.094Z,13.80
2023-05-10T13:33:51.927Z,14.10
2023-05-10T13:36:19.438Z,14.10
2023-05-10T13:38:46.910Z,14.10
2023-05-10T13:41:14.432Z,14.20
2023-05-10T13:43:41.878Z,14.10
2023-05-10T13:46:09.439Z,14.30
2023-05-10T13:48:39.629Z,14.50
2023-05-10T13:51:07.128Z,14.20
2023-05-10T13:53:34.639Z,13.90
2023-05-10T13:56:03.236Z,14.20
2023-05-10T13:58:30.770Z,14.30
2023-05-10T14:00:58.182Z,14.50
2023-05-10T14:03:25.707Z,14.50
2023-05-10T14:05:53.213Z,14.50
2023-05-10T14:08:21.229Z,14.40
2023-05-10T14:10:49.775Z,14.40
2023-05-10T14:13:17.268Z,14.50
2023-05-10T14:15:44.815Z,14.50
2023-05-10T14:18:12.462Z,14.40
2023-05-10T14:20:39.946Z,14.30
2023-05-10T14:23:08.366Z,14.40
2023-05-10T14:25:37.114Z,14.50
2023-05-10T14:28:04.763Z,14.10
2023-05-10T14:30:33.775Z,13.90
2023-05-10T14:33:03.427Z,13.70
2023-05-10T14:35:32.208Z,13.80
2023-05-10T14:37:59.844Z,13.90
2023-05-10T14:40:27.331Z,13.80
2023-05-10T14:42:54.918Z,13.70
2023-05-10T14:45:23.576Z,13.70
2023-05-10T14:47:51.800Z,13.60
2023-05-10T14:50:35.180Z,13.60
2023-05-10T14:53:04.389Z,13.70
2023-05-10T14:55:31.822Z,13.70
2023-05-10T14:57:59.784Z,13.40
2023-05-10T15:00:28.617Z,13.20
2023-05-10T15:02:56.809Z,12.80
2023-05-10T15:05:24.733Z,13.00
2023-05-10T15:07:52.543Z,12.80
2023-05-10T15:10:20.066Z,12.80
2023-05-10T15:12:47.594Z,12.80
2023-05-10T15:15:15.268Z,12.90
2023-05-10T15:17:42.941Z,12.80
2023-05-10T15:20:10.712Z,12.70
2023-05-10T15:22:39.233Z,12.80
2023-05-10T15:25:07.158Z,12.70
2023-05-10T15:27:34.700Z,12.80
2023-05-10T15:30:02.455Z,12.80
2023-05-10T15:32:30.295Z,12.60
2023-05-10T15:34:58.056Z,12.30
2023-05-10T15:37:25.556Z,12.20
2023-05-10T15:39:53.635Z,12.00
2023-05-10T15:42:21.706Z,12.00
2023-05-10T15:44:51.220Z,11.90
2023-05-10T15:47:18.909Z,12.00
2023-05-10T15:49:46.370Z,12.10
2023-05-10T15:52:13.969Z,12.00
2023-05-10T15:54:41.745Z,12.00
2023-05-10T15:57:09.381Z,12.10
2023-05-10T15:59:37.829Z,12.10
2023-05-10T16:02:06.394Z,12.10
2023-05-10T16:04:33.869Z,11.90
2023-05-10T16:07:01.382Z,12.00
2023-05-10T16:09:28.990Z,12.00
2023-05-10T16:11:56.901Z,11.80
2023-05-10T16:14:24.820Z,11.90
2023-05-10T16:16:52.518Z,11.70
2023-05-10T16:19:20.250Z,11.70
2023-05-10T16:21:47.865Z,11.80
2023-05-10T16:24:15.579Z,11.60
2023-05-10T16:26:43.466Z,11.60
2023-05-10T16:29:11.168Z,11.80
2023-05-10T16:31:39.090Z,11.90
2023-05-10T16:34:06.591Z,12.00
2023-05-10T16:36:34.135Z,11.80
2023-05-10T16:39:01.866Z,11.80
2023-05-10T16:41:29.416Z,11.90
2023-05-10T16:43:57.696Z,11.80
2023-05-10T16:46:25.310Z,11.90
2023-05-10T16:48:52.763Z,12.10
2023-05-10T16:51:20.546Z,12.20
2023-05-10T16:53:48.030Z,12.40
2023-05-10T16:56:17.790Z,12.40
2023-05-10T16:58:47.630Z,12.50
2023-05-10T17:01:15.066Z,12.70
2023-05-10T17:03:42.793Z,12.80
2023-05-10T17:06:10.995Z,12.90
2023-05-10T17:08:38.590Z,13.00
2023-05-10T17:11:06.085Z,12.70
2023-05-10T17:13:33.732Z,12.70
2023-05-10T17:16:03.669Z,12.60
2023-05-10T17:18:31.677Z,12.60
2023-05-10T17:20:59.310Z,12.60
2023-05-10T17:23:27.037Z,12.30
2023-05-10T17:25:54.459Z,12.30
2023-05-10T17:28:22.089Z,12.30
2023-05-10T17:30:57.022Z,12.20
2023-05-10T17:33:24.511Z,12.20
2023-05-10T17:35:52.173Z,12.20
2023-05-10T17:38:19.752Z,12.00
2023-05-10T17:40:47.441Z,12.00
2023-05-10T17:43:14.945Z,11.90
2023-05-10T17:45:42.604Z,12.00
2023-05-10T17:48:11.491Z,12.00
2023-05-10T17:50:42.404Z,11.90
2023-05-10T17:53:10.246Z,11.90
2023-05-10T17:55:41.338Z,11.90
2023-05-10T17:58:11.246Z,11.80
2023-05-10T18:00:39.274Z,11.90
2023-05-10T18:03:06.886Z,11.80
2023-05-10T18:05:38.832Z,11.80
2023-05-10T18:08:07.400Z,11.60
2023-05-10T18:10:34.911Z,11.80
2023-05-10T18:13:02.644Z,11.70
2023-05-10T18:15:30.107Z,11.60
2023-05-10T18:17:57.768Z,11.60
2023-05-10T18:20:25.242Z,11.60
2023-05-10T18:22:52.754Z,11.70
2023-05-10T18:25:20.457Z,11.70
2023-05-10T18:27:48.337Z,11.60
2023-05-10T18:30:15.981Z,11.70
2023-05-10T18:32:43.574Z,11.70
2023-05-10T18:35:11.821Z,11.70
2023-05-10T18:37:39.524Z,11.60
2023-05-10T18:40:14.176Z,11.60
2023-05-10T18:42:42.079Z,11.60
2023-05-10T18:45:09.826Z,11.60
2023-05-10T18:47:37.452Z,11.70
2023-05-10T18:50:05.757Z,11.70
2023-05-10T18:52:33.384Z,11.70
2023-05-10T18:55:01.379Z,11.80
2023-05-10T18:57:29.093Z,11.60
2023-05-10T18:59:56.612Z,11.70
2023-05-10T19:02:26.708Z,11.70
2023-05-10T19:04:54.379Z,11.70
2023-05-10T19:07:21.856Z,11.60
2023-05-10T19:09:49.381Z,11.60
2023-05-10T19:12:16.836Z,11.70
2023-05-10T19:14:44.429Z,11.70
2023-05-10T19:17:11.912Z,11.70
2023-05-10T19:19:39.424Z,11.60
2023-05-10T19:22:06.842Z,11.60
2023-05-10T19:24:36.788Z,11.60
2023-05-10T19:27:04.358Z,11.60
2023-05-10T19:29:32.229Z,11.60
2023-05-10T19:32:00.543Z,11.50
2023-05-10T19:34:28.096Z,11.70
2023-05-10T19:36:56.200Z,11.50
2023-05-10T19:39:23.976Z,11.60
2023-05-10T19:41:51.581Z,11.70
2023-05-10T19:44:19.230Z,11.60
2023-05-10T19:46:47.857Z,11.80
2023-05-10T19:49:15.496Z,11.60
2023-05-10T19:51:43.047Z,11.60
2023-05-10T19:54:10.504Z,11.60
2023-05-10T19:56:37.973Z,11.60
2023-05-10T19:59:06.742Z,11.70
2023-05-10T20:01:34.492Z,11.50
2023-05-10T20:04:02.023Z,11.40
2023-05-10T20:06:29.650Z,11.40
2023-05-10T20:08:57.104Z,11.60
2023-05-10T20:11:24.696Z,11.40
2023-05-10T20:13:53.023Z,11.40
2023-05-10T20:16:20.851Z,11.50
2023-05-10T20:18:48.485Z,11.50
2023-05-10T20:21:15.971Z,11.50
2023-05-10T20:23:43.771Z,11.60
2023-05-10T20:26:11.239Z,11.60
2023-05-10T20:28:38.684Z,11.50
2023-05-10T20:31:06.278Z,11.50
2023-05-10T20:33:33.800Z,11.40
2023-05-10T20:36:01.282Z,11.40
2023-05-10T20:38:28.685Z,11.50
2023-05-10T20:40:56.154Z,11.30
2023-05-10T20:43:23.715Z,11.30
2023-05-10T20:45:51.506Z,11.30
2023-05-10T20:48:20.190Z,11.50
2023-05-10T20:50:47.809Z,11.50
2023-05-10T20:53:15.789Z,11.30
2023-05-10T20:55:43.392Z,11.40
2023-05-10T20:58:10.815Z,11.40
2023-05-10T21:00:38.354Z,11.40
2023-05-10T21:03:05.920Z,11.40
2023-05-10T21:05:33.657Z,11.20
2023-05-10T21:08:01.242Z,11.20
2023-05-10T21:10:28.732Z,11.40
2023-05-10T21:12:56.463Z,11.20
2023-05-10T21:15:24.572Z,11.40
2023-05-10T21:17:54.052Z,11.20
2023-05-10T21:20:21.737Z,11.30
2023-05-10T21:22:49.196Z,11.30
2023-05-10T21:25:17.266Z,11.50
2023-05-10T21:27:44.750Z,11.30
2023-05-10T21:30:12.453Z,11.50
2023-05-10T21:32:40.089Z,11.40
2023-05-10T21:35:08.277Z,11.50
2023-05-10T21:37:35.849Z,11.50
2023-05-10T21:40:04.865Z,11.30
2023-05-10T21:42:32.333Z,11.30
2023-05-10T21:44:59.812Z,11.50
2023-05-10T21:47:27.511Z,11.40
2023-05-10T21:49:55.079Z,11.50
2023-05-10T21:52:22.584Z,11.50
2023-05-10T21:54:50.034Z,11.30
2023-05-10T21:57:17.629Z,11.40
2023-05-10T21:59:45.176Z,11.30
2023-05-10T22:02:12.741Z,11.20
2023-05-10T22:04:40.345Z,11.20
2023-05-10T22:07:07.828Z,11.40
2023-05-10T22:09:35.528Z,11.20
2023-05-10T22:12:03.780Z,11.30
2023-05-10T22:14:31.225Z,11.20
2023-05-10T22:16:58.670Z,11.30
2023-05-10T22:19:26.569Z,11.10
2023-05-10T22:21:54.155Z,11.30
2023-05-10T22:24:21.604Z,11.50
2023-05-10T22:26:49.064Z,11.30
2023-05-10T22:29:17.021Z,11.50
2023-05-10T22:31:44.457Z,11.50
2023-05-10T22:34:12.112Z,11.60
2023-05-10T22:36:39.568Z,11.60
2023-05-10T22:39:07.179Z,11.60
2023-05-10T22:41:34.825Z,11.50
2023-05-10T22:44:04.700Z,11.50
2023-05-10T22:46:32.704Z,11.40
2023-05-10T22:49:00.218Z,11.60
2023-05-10T22:51:28.065Z,11.60
2023-05-10T22:53:55.604Z,11.50
2023-05-10T22:56:23.188Z,11.50
2023-05-10T22:58:51.145Z,11.40
2023-05-10T23:01:18.755Z,11.60
2023-05-10T23:03:46.417Z,11.50
2023-05-10T23:06:14.019Z,11.60
2023-05-10T23:08:41.433Z,11.60
2023-05-10T23:11:08.988Z,11.50
2023-05-10T23:13:36.502Z,11.40
2023-05-10T23:16:07.320Z,11.60
2023-05-10T23:18:34.940Z,11.60
2023-05-10T23:21:02.480Z,11.50
2023-05-10T23:23:30.393Z,11.60
2023-05-10T23:25:58.031Z,11.50
2023-05-10T23:28:25.542Z,11.60
2023-05-10T23:30:56.759Z,11.40
2023-05-10T23:33:25.164Z,11.50
2023-05-10T23:35:53.479Z,11.50
2023-05-10T23:38:21.663Z,11.50
2023-05-10T23:40:50.308Z,11.40
2023-05-10T23:43:19.787Z,11.60
2023-05-10T23:45:55.217Z,11.40
2023-05-10T23:48:22.803Z,11.50
2023-05-10T23:50:50.746Z,11.50
2023-05-10T23:53:18.314Z,11.70
2023-05-10T23:55:45.978Z,11.60
2023-05-10T23:58:13.678Z,11.60
